createdAt,value
2017-12-22T00:00:40.992Z,87.00
2017-12-22T00:03:14.365Z,87.10
2017-12-22T00:05:47.077Z,87.00
2017-12-22T00:08:20.390Z,87.00
2017-12-22T00:10:53.259Z,87.00
2017-12-22T00:13:26.630Z,87.00
2017-12-22T00:16:00.633Z,87.00
2017-12-22T00:18:33.159Z,86.90
2017-12-22T00:21:06.549Z,86.90
2017-12-22T00:23:39.656Z,87.10
2017-12-22T00:26:12.849Z,87.10
2017-12-22T00:28:46.045Z,87.10
2017-12-22T00:31:19.415Z,87.10
2017-12-22T00:33:52.520Z,87.20
2017-12-22T00:36:25.886Z,87.20
2017-12-22T00:38:58.482Z,87.20
2017-12-22T00:41:32.554Z,87.40
2017-12-22T00:44:05.020Z,87.40
2017-12-22T00:46:37.582Z,87.40
2017-12-22T00:49:10.808Z,87.50
2017-12-22T00:51:44.649Z,87.90
2017-12-22T00:54:18.322Z,87.50
2017-12-22T00:56:51.777Z,87.50
2017-12-22T00:59:24.699Z,87.50
2017-12-22T01:01:57.103Z,87.50
2017-12-22T01:04:29.491Z,87.50
2017-12-22T01:07:02.111Z,87.60
2017-12-22T01:09:34.741Z,87.60
2017-12-22T01:12:07.225Z,87.50
2017-12-22T01:14:39.776Z,87.60
2017-12-22T01:17:19.204Z,87.70
2017-12-22T01:19:51.613Z,87.70
2017-12-22T01:22:24.503Z,87.70
2017-12-22T01:24:57.870Z,87.80
2017-12-22T01:27:30.946Z,87.70
2017-12-22T01:30:04.269Z,87.70
2017-12-22T01:32:37.074Z,87.60
2017-12-22T01:35:09.667Z,87.60
2017-12-22T01:37:42.089Z,87.60
2017-12-22T01:40:16.173Z,87.70
2017-12-22T01:42:49.165Z,87.60
2017-12-22T01:45:23.146Z,87.60
2017-12-22T01:47:56.801Z,87.50
2017-12-22T01:50:31.708Z,87.50
2017-12-22T01:53:04.974Z,87.50
2017-12-22T01:55:37.496Z,87.50
2017-12-22T01:58:09.961Z,87.50
2017-12-22T02:00:43.241Z,87.60
2017-12-22T02:03:16.873Z,87.70
2017-12-22T02:05:49.694Z,87.70
2017-12-22T02:08:23.261Z,87.70
2017-12-22T02:10:55.931Z,87.60
2017-12-22T02:13:28.406Z,87.60
2017-12-22T02:16:00.957Z,87.60
2017-12-22T02:18:33.515Z,87.60
2017-12-22T02:21:05.974Z,87.60
2017-12-22T02:23:39.368Z,87.40
2017-12-22T02:26:12.242Z,87.40
2017-12-22T02:28:45.458Z,87.20
2017-12-22T02:31:18.099Z,87.30
2017-12-22T02:33:50.636Z,87.20
2017-12-22T02:36:23.127Z,87.10
2017-12-22T02:38:56.716Z,87.10
2017-12-22T02:41:29.495Z,87.80
2017-12-22T02:44:02.782Z,87.20
2017-12-22T02:46:36.083Z,87.20
2017-12-22T02:49:09.449Z,87.20
2017-12-22T02:51:43.261Z,87.10
2017-12-22T02:54:15.782Z,87.10
2017-12-22T02:56:48.928Z,87.10
2017-12-22T02:59:22.025Z,87.00
2017-12-22T03:01:54.630Z,87.10
2017-12-22T03:04:27.766Z,87.10
2017-12-22T03:07:00.383Z,87.10
2017-12-22T03:09:34.214Z,87.10
2017-12-22T03:12:07.557Z,87.10
2017-12-22T03:14:40.855Z,87.20
2017-12-22T03:17:14.265Z,87.10
2017-12-22T03:19:47.918Z,87.00
2017-12-22T03:22:20.727Z,87.00
2017-12-22T03:24:53.997Z,87.00
2017-12-22T03:27:26.922Z,87.00
2017-12-22T03:29:59.565Z,87.10
2017-12-22T03:32:32.751Z,87.00
2017-12-22T03:35:06.303Z,86.80
2017-12-22T03:37:39.071Z,86.80
2017-12-22T03:40:11.593Z,86.80
2017-12-22T03:42:45.738Z,86.80
2017-12-22T03:45:18.367Z,86.80
2017-12-22T03:47:50.859Z,86.80
2017-12-22T03:50:23.652Z,86.80
2017-12-22T03:52:57.073Z,86.80
2017-12-22T03:55:30.131Z,86.80
2017-12-22T03:58:02.785Z,86.80
2017-12-22T04:00:35.821Z,86.80
2017-12-22T04:03:09.720Z,86.70
2017-12-22T04:05:42.417Z,86.70
2017-12-22T04:08:15.579Z,86.70
2017-12-22T04:10:48.785Z,86.70
2017-12-22T04:13:21.314Z,86.60
2017-12-22T04:15:53.820Z,86.60
2017-12-22T04:18:28.015Z,86.40
2017-12-22T04:21:01.244Z,86.40
2017-12-22T04:23:34.097Z,86.50
2017-12-22T04:26:07.258Z,86.50
2017-12-22T04:28:39.924Z,86.50
2017-12-22T04:31:12.538Z,86.50
2017-12-22T04:33:46.611Z,86.50
2017-12-22T04:36:19.361Z,86.50
2017-12-22T04:38:51.908Z,86.60
2017-12-22T04:41:24.349Z,86.40
2017-12-22T04:43:56.949Z,86.50
2017-12-22T04:46:30.336Z,86.50
2017-12-22T04:49:02.990Z,86.60
2017-12-22T04:51:36.276Z,86.50
2017-12-22T04:54:09.149Z,86.50
2017-12-22T04:56:41.570Z,86.50
2017-12-22T04:59:14.144Z,86.50
2017-12-22T05:01:47.432Z,86.60
2017-12-22T05:04:20.563Z,86.40
2017-12-22T05:06:53.974Z,86.50
2017-12-22T05:09:26.492Z,86.30
2017-12-22T05:11:59.799Z,86.40
2017-12-22T05:14:32.348Z,86.90
2017-12-22T05:17:05.775Z,85.80
2017-12-22T05:19:38.796Z,86.20
2017-12-22T05:22:12.109Z,86.30
2017-12-22T05:24:45.280Z,86.40
2017-12-22T05:27:18.589Z,86.30
2017-12-22T05:29:51.796Z,86.30
2017-12-22T05:32:25.053Z,86.20
2017-12-22T05:34:58.109Z,86.30
2017-12-22T05:37:31.333Z,86.10
2017-12-22T05:40:04.131Z,86.10
2017-12-22T05:42:36.633Z,86.20
2017-12-22T05:45:09.111Z,86.20
2017-12-22T05:47:41.758Z,86.20
2017-12-22T05:50:14.187Z,86.20
2017-12-22T05:52:47.547Z,86.40
2017-12-22T05:55:20.486Z,85.90
2017-12-22T05:57:53.060Z,86.00
2017-12-22T06:00:26.281Z,86.80
2017-12-22T06:02:59.154Z,86.00
2017-12-22T06:05:31.581Z,86.00
2017-12-22T06:08:06.894Z,86.00
2017-12-22T06:10:39.474Z,86.00
2017-12-22T06:13:12.451Z,85.80
2017-12-22T06:15:45.644Z,85.90
2017-12-22T06:18:19.862Z,85.80
2017-12-22T06:20:52.261Z,85.90
2017-12-22T06:23:24.948Z,85.90
2017-12-22T06:25:58.401Z,85.70
2017-12-22T06:28:31.563Z,85.90
2017-12-22T06:31:04.415Z,85.80
2017-12-22T06:33:38.429Z,85.90
2017-12-22T06:36:11.796Z,85.90
2017-12-22T06:38:45.216Z,86.00
2017-12-22T06:41:19.327Z,86.00
2017-12-22T06:43:53.438Z,86.00
2017-12-22T06:46:26.024Z,86.00
2017-12-22T06:48:59.774Z,86.10
2017-12-22T06:51:32.561Z,86.10
2017-12-22T06:54:05.196Z,86.00
2017-12-22T06:56:37.655Z,86.10
2017-12-22T06:59:10.079Z,86.00
2017-12-22T07:01:43.453Z,85.90
2017-12-22T07:04:16.268Z,86.00
2017-12-22T07:06:48.735Z,85.90
2017-12-22T07:09:21.333Z,85.90
2017-12-22T07:11:53.840Z,85.80
2017-12-22T07:14:27.141Z,85.60
2017-12-22T07:16:59.740Z,85.50
2017-12-22T07:19:32.998Z,85.60
2017-12-22T07:22:06.501Z,86.10
2017-12-22T07:24:39.616Z,85.70
2017-12-22T07:27:12.840Z,85.70
2017-12-22T07:29:45.831Z,85.70
2017-12-22T07:32:19.247Z,85.70
2017-12-22T07:34:52.656Z,85.70
2017-12-22T07:37:25.172Z,85.70
2017-12-22T07:39:58.926Z,85.60
2017-12-22T07:42:31.722Z,85.50
2017-12-22T07:45:05.622Z,85.50
2017-12-22T07:47:38.211Z,85.50
2017-12-22T07:50:12.110Z,85.30
2017-12-22T07:52:45.441Z,85.20
2017-12-22T07:55:18.096Z,85.20
2017-12-22T07:57:51.680Z,85.20
2017-12-22T08:00:24.972Z,85.20
2017-12-22T08:02:57.851Z,85.20
2017-12-22T08:05:30.484Z,85.30
2017-12-22T08:08:03.221Z,85.30
2017-12-22T08:10:35.831Z,84.90
2017-12-22T08:13:09.093Z,84.80
2017-12-22T08:15:42.033Z,84.80
2017-12-22T08:18:14.620Z,84.90
2017-12-22T08:20:47.087Z,84.90
2017-12-22T08:23:20.297Z,84.90
2017-12-22T08:25:53.893Z,85.00
2017-12-22T08:28:26.682Z,84.90
2017-12-22T08:30:59.150Z,84.90
2017-12-22T08:33:31.683Z,85.00
2017-12-22T08:36:04.442Z,85.20
2017-12-22T08:38:37.841Z,85.50
2017-12-22T08:41:10.773Z,85.10
2017-12-22T08:43:44.171Z,85.10
2017-12-22T08:46:17.417Z,85.10
2017-12-22T08:48:51.606Z,85.10
2017-12-22T08:51:24.746Z,85.10
2017-12-22T08:53:57.226Z,85.10
2017-12-22T08:56:29.612Z,85.10
2017-12-22T08:59:02.828Z,85.10
2017-12-22T09:01:36.209Z,85.10
2017-12-22T09:04:09.409Z,85.10
2017-12-22T09:06:42.366Z,85.00
2017-12-22T09:09:15.588Z,85.00
2017-12-22T09:11:49.443Z,85.60
2017-12-22T09:14:23.122Z,85.10
2017-12-22T09:16:56.001Z,85.10
2017-12-22T09:19:28.599Z,85.00
2017-12-22T09:22:01.210Z,85.20
2017-12-22T09:24:34.593Z,84.80
2017-12-22T09:27:06.972Z,84.80
2017-12-22T09:29:39.461Z,84.80
2017-12-22T09:32:11.900Z,84.80
2017-12-22T09:34:44.389Z,84.80
2017-12-22T09:37:16.891Z,84.70
2017-12-22T09:39:50.083Z,85.30
2017-12-22T09:42:22.747Z,85.20
2017-12-22T09:44:55.311Z,85.30
2017-12-22T09:47:28.607Z,85.30
2017-12-22T09:50:01.301Z,85.30
2017-12-22T09:52:35.389Z,85.70
2017-12-22T09:55:09.416Z,85.40
2017-12-22T09:57:42.033Z,85.30
2017-12-22T10:00:16.102Z,84.90
2017-12-22T10:02:48.563Z,84.90
2017-12-22T10:05:21.870Z,85.00
2017-12-22T10:07:55.151Z,84.80
2017-12-22T10:10:27.740Z,84.80
2017-12-22T10:13:00.174Z,84.90
2017-12-22T10:15:33.419Z,84.90
2017-12-22T10:18:06.669Z,84.80
2017-12-22T10:20:39.602Z,84.90
2017-12-22T10:23:12.777Z,84.90
2017-12-22T10:25:45.486Z,85.00
2017-12-22T10:28:17.937Z,85.10
2017-12-22T10:30:51.367Z,85.10
2017-12-22T10:33:24.665Z,85.10
2017-12-22T10:35:57.353Z,85.20
2017-12-22T10:38:30.657Z,85.20
2017-12-22T10:41:04.057Z,85.40
2017-12-22T10:43:36.773Z,85.40
2017-12-22T10:46:09.258Z,85.30
2017-12-22T10:48:41.885Z,86.40
2017-12-22T10:51:14.369Z,85.30
2017-12-22T10:53:46.864Z,85.20
2017-12-22T10:56:20.301Z,85.30
2017-12-22T10:58:52.995Z,85.50
2017-12-22T11:01:26.387Z,85.30
2017-12-22T11:04:00.374Z,86.30
2017-12-22T11:06:33.705Z,85.80
2017-12-22T11:09:06.384Z,85.80
2017-12-22T11:11:39.559Z,85.70
2017-12-22T11:14:13.457Z,85.20
2017-12-22T11:16:46.767Z,85.60
2017-12-22T11:19:20.844Z,85.20
2017-12-22T11:21:53.327Z,85.20
2017-12-22T11:24:26.572Z,85.30
2017-12-22T11:27:00.569Z,85.10
2017-12-22T11:29:33.161Z,85.10
2017-12-22T11:32:06.381Z,85.30
2017-12-22T11:34:39.431Z,85.40
2017-12-22T11:37:12.647Z,85.50
2017-12-22T11:39:45.368Z,85.40
2017-12-22T11:42:17.923Z,85.00
2017-12-22T11:44:51.339Z,85.30
2017-12-22T11:47:25.429Z,84.90
2017-12-22T11:49:58.344Z,84.90
2017-12-22T11:52:31.045Z,84.60
2017-12-22T11:55:04.448Z,84.80
2017-12-22T11:57:36.949Z,85.10
2017-12-22T12:00:09.584Z,85.30
2017-12-22T12:02:43.773Z,85.40
2017-12-22T12:05:17.136Z,85.20
2017-12-22T12:07:49.710Z,85.00
2017-12-22T12:10:22.350Z,85.00
2017-12-22T12:12:55.527Z,84.80
2017-12-22T12:15:28.651Z,85.40
2017-12-22T12:18:02.147Z,84.60
2017-12-22T12:20:35.766Z,84.60
2017-12-22T12:23:08.964Z,84.50
2017-12-22T12:25:42.189Z,84.70
2017-12-22T12:28:14.625Z,84.60
2017-12-22T12:30:47.699Z,84.80
2017-12-22T12:33:20.913Z,84.70
2017-12-22T12:35:54.247Z,85.00
2017-12-22T12:38:27.456Z,85.00
2017-12-22T12:41:00.906Z,84.80
2017-12-22T12:43:34.233Z,85.00
2017-12-22T12:46:07.348Z,86.00
2017-12-22T12:48:39.857Z,85.20
2017-12-22T12:51:12.576Z,85.00
2017-12-22T12:53:45.156Z,85.10
2017-12-22T12:56:17.719Z,85.10
2017-12-22T12:58:50.956Z,85.20
2017-12-22T13:01:23.945Z,85.20
2017-12-22T13:03:56.562Z,85.30
2017-12-22T13:06:30.760Z,85.30
2017-12-22T13:09:03.600Z,85.30
2017-12-22T13:11:36.981Z,85.70
2017-12-22T13:14:09.431Z,85.80
2017-12-22T13:16:41.959Z,86.00
2017-12-22T13:19:14.485Z,86.00
2017-12-22T13:21:46.940Z,86.00
2017-12-22T13:24:20.162Z,86.00
2017-12-22T13:26:53.128Z,86.00
2017-12-22T13:29:25.584Z,86.00
2017-12-22T13:31:58.718Z,85.90
2017-12-22T13:34:31.953Z,85.90
2017-12-22T13:37:05.277Z,85.90
2017-12-22T13:39:38.754Z,85.90
2017-12-22T13:42:11.323Z,86.10
2017-12-22T13:44:44.299Z,86.20
2017-12-22T13:47:18.406Z,86.50
2017-12-22T13:49:51.657Z,86.50
2017-12-22T13:52:24.842Z,86.50
2017-12-22T13:54:58.234Z,86.60
2017-12-22T13:57:31.406Z,86.80
2017-12-22T14:00:03.980Z,86.90
2017-12-22T14:02:36.419Z,87.00
2017-12-22T14:05:09.933Z,87.10
2017-12-22T14:07:43.383Z,87.10
2017-12-22T14:10:16.309Z,87.10
2017-12-22T14:12:48.887Z,87.10
2017-12-22T14:15:22.285Z,87.20
2017-12-22T14:17:55.067Z,87.20
2017-12-22T14:20:27.709Z,87.20
2017-12-22T14:23:00.972Z,87.20
2017-12-22T14:25:33.599Z,87.30
2017-12-22T14:28:06.759Z,87.30
2017-12-22T14:30:39.561Z,87.30
2017-12-22T14:33:11.956Z,87.30
2017-12-22T14:35:45.293Z,87.20
2017-12-22T14:38:18.611Z,87.10
2017-12-22T14:40:51.837Z,87.20
2017-12-22T14:43:24.949Z,87.20
2017-12-22T14:45:58.313Z,87.20
2017-12-22T14:48:32.391Z,87.30
2017-12-22T14:51:05.082Z,87.20
2017-12-22T14:53:37.567Z,87.10
2017-12-22T14:56:10.269Z,87.10
2017-12-22T14:58:43.595Z,87.00
2017-12-22T15:01:17.072Z,88.10
2017-12-22T15:03:51.194Z,87.60
2017-12-22T15:06:24.570Z,87.60
2017-12-22T15:08:57.649Z,87.70
2017-12-22T15:11:31.137Z,87.70
2017-12-22T15:14:04.579Z,87.80
2017-12-22T15:16:37.513Z,87.70
2017-12-22T15:19:10.165Z,87.70
2017-12-22T15:21:43.344Z,88.10
2017-12-22T15:24:16.129Z,87.80
2017-12-22T15:26:49.448Z,87.90
2017-12-22T15:29:22.209Z,87.90
2017-12-22T15:31:54.785Z,87.90
2017-12-22T15:34:27.167Z,87.70
2017-12-22T15:37:00.433Z,87.60
2017-12-22T15:39:34.016Z,87.60
2017-12-22T15:42:06.869Z,87.60
2017-12-22T15:44:39.367Z,87.60
2017-12-22T15:47:12.734Z,87.70
2017-12-22T15:49:45.718Z,87.60
2017-12-22T15:52:19.159Z,87.70
2017-12-22T15:54:52.968Z,87.60
2017-12-22T15:57:25.792Z,87.60
2017-12-22T15:59:59.205Z,87.60
2017-12-22T16:02:32.544Z,87.60
2017-12-22T16:05:05.519Z,87.70
2017-12-22T16:07:38.104Z,87.80
2017-12-22T16:10:11.391Z,87.70
2017-12-22T16:12:44.114Z,87.70
2017-12-22T16:15:17.001Z,87.80
2017-12-22T16:17:49.546Z,87.90
2017-12-22T16:20:22.735Z,88.00
2017-12-22T16:22:56.024Z,87.90
2017-12-22T16:25:29.488Z,87.80
2017-12-22T16:28:02.414Z,87.90
2017-12-22T16:30:35.789Z,88.00
2017-12-22T16:33:08.693Z,88.00
2017-12-22T16:35:41.209Z,88.10
2017-12-22T16:38:14.683Z,87.60
2017-12-22T16:40:48.026Z,88.20
2017-12-22T16:43:20.977Z,88.20
2017-12-22T16:45:53.462Z,88.20
2017-12-22T16:48:27.623Z,88.10
2017-12-22T16:51:00.252Z,88.10
2017-12-22T16:53:32.812Z,88.10
2017-12-22T16:56:06.204Z,88.10
2017-12-22T16:58:39.118Z,88.20
2017-12-22T17:01:12.161Z,88.10
2017-12-22T17:03:45.397Z,88.10
2017-12-22T17:06:17.906Z,88.10
2017-12-22T17:08:50.297Z,88.10
2017-12-22T17:11:22.902Z,88.00
2017-12-22T17:13:55.463Z,87.90
2017-12-22T17:16:28.032Z,87.90
2017-12-22T17:19:01.293Z,87.80
2017-12-22T17:21:34.291Z,87.80
2017-12-22T17:24:06.843Z,88.60
2017-12-22T17:26:40.184Z,87.80
2017-12-22T17:29:13.250Z,87.80
2017-12-22T17:31:46.429Z,87.90
2017-12-22T17:34:19.055Z,87.90
2017-12-22T17:36:51.562Z,87.90
2017-12-22T17:39:24.318Z,87.80
2017-12-22T17:41:57.869Z,87.80
2017-12-22T17:44:30.876Z,87.80
2017-12-22T17:47:04.326Z,87.80
2017-12-22T17:49:37.601Z,88.30
2017-12-22T17:52:10.866Z,87.90
2017-12-22T17:54:44.392Z,87.90
2017-12-22T17:57:17.107Z,87.90
2017-12-22T17:59:50.641Z,87.90
2017-12-22T18:02:24.442Z,87.90
2017-12-22T18:04:56.946Z,87.90
2017-12-22T18:07:29.402Z,87.90
2017-12-22T18:10:03.473Z,87.80
2017-12-22T18:12:36.924Z,87.70
2017-12-22T18:15:09.643Z,87.60
2017-12-22T18:17:42.841Z,87.60
2017-12-22T18:20:16.977Z,87.60
2017-12-22T18:22:51.103Z,87.80
2017-12-22T18:25:23.632Z,87.70
2017-12-22T18:27:56.954Z,87.70
2017-12-22T18:30:31.002Z,87.70
2017-12-22T18:33:03.503Z,87.70
2017-12-22T18:35:36.951Z,87.60
2017-12-22T18:38:10.269Z,87.70
2017-12-22T18:40:43.500Z,87.70
2017-12-22T18:43:15.935Z,87.70
2017-12-22T18:45:49.421Z,87.60
2017-12-22T18:48:22.168Z,87.60
2017-12-22T18:50:54.819Z,87.50
2017-12-22T18:53:27.300Z,87.60
2017-12-22T18:56:00.155Z,87.60
2017-12-22T18:58:32.809Z,87.60
2017-12-22T19:01:05.546Z,87.70
2017-12-22T19:03:38.148Z,87.60
2017-12-22T19:06:10.800Z,87.70
2017-12-22T19:08:43.314Z,87.70
2017-12-22T19:11:15.822Z,87.60
2017-12-22T19:13:48.227Z,87.60
2017-12-22T19:16:20.968Z,87.60
2017-12-22T19:18:54.384Z,87.60
2017-12-22T19:21:27.488Z,87.70
2017-12-22T19:24:01.075Z,87.80
2017-12-22T19:26:34.317Z,87.90
2017-12-22T19:29:07.389Z,88.00
2017-12-22T19:31:40.671Z,88.00
2017-12-22T19:34:13.717Z,88.00
2017-12-22T19:36:47.088Z,88.00
2017-12-22T19:39:20.564Z,88.10
2017-12-22T19:41:53.085Z,88.10
2017-12-22T19:44:27.140Z,88.00
2017-12-22T19:47:01.025Z,88.00
2017-12-22T19:49:34.215Z,88.00
2017-12-22T19:52:07.508Z,88.00
2017-12-22T19:54:40.697Z,88.00
2017-12-22T19:57:14.338Z,88.00
2017-12-22T19:59:47.588Z,88.00
2017-12-22T20:02:20.825Z,88.00
2017-12-22T20:04:56.082Z,88.00
2017-12-22T20:07:30.847Z,88.00
2017-12-22T20:10:04.443Z,88.00
2017-12-22T20:12:38.448Z,88.00
2017-12-22T20:15:11.844Z,87.90
2017-12-22T20:17:47.072Z,87.90
2017-12-22T20:20:21.193Z,87.90
2017-12-22T20:22:54.997Z,87.90
2017-12-22T20:25:28.903Z,87.90
2017-12-22T20:28:03.794Z,87.90
2017-12-22T20:30:38.189Z,88.00
2017-12-22T20:33:13.791Z,88.00
2017-12-22T20:35:50.228Z,88.00
2017-12-22T20:38:25.527Z,88.00
2017-12-22T20:41:01.222Z,88.00
2017-12-22T20:43:37.114Z,88.10
2017-12-22T20:46:12.874Z,88.70
2017-12-22T20:48:48.490Z,88.10
2017-12-22T20:51:23.840Z,88.10
2017-12-22T20:53:59.550Z,88.10
2017-12-22T20:56:34.715Z,88.00
2017-12-22T20:59:10.448Z,88.00
2017-12-22T21:01:46.778Z,88.00
2017-12-22T21:04:22.078Z,88.00
2017-12-22T21:06:57.126Z,88.00
2017-12-22T21:09:32.177Z,88.10
2017-12-22T21:12:08.182Z,88.00
2017-12-22T21:14:43.234Z,87.90
2017-12-22T21:17:18.433Z,87.80
2017-12-22T21:19:54.554Z,87.80
2017-12-22T21:22:28.641Z,87.80
2017-12-22T21:25:02.958Z,87.90
2017-12-22T21:27:36.353Z,87.90
2017-12-22T21:30:09.746Z,87.90
2017-12-22T21:32:43.017Z,87.90
2017-12-22T21:35:16.841Z,87.90
2017-12-22T21:37:51.773Z,88.00
2017-12-22T21:40:24.471Z,88.00
2017-12-22T21:42:58.002Z,88.00
2017-12-22T21:45:31.268Z,88.00
2017-12-22T21:48:04.499Z,87.90
2017-12-22T21:50:37.566Z,88.00
2017-12-22T21:53:10.860Z,88.00
2017-12-22T21:55:43.482Z,88.00
2017-12-22T21:58:17.534Z,88.00
2017-12-22T22:00:50.905Z,88.00
2017-12-22T22:03:24.027Z,88.00
2017-12-22T22:05:58.137Z,88.00
2017-12-22T22:08:31.361Z,87.90
2017-12-22T22:11:04.739Z,87.90
2017-12-22T22:13:37.783Z,88.00
2017-12-22T22:16:11.824Z,88.00
2017-12-22T22:18:45.149Z,88.80
2017-12-22T22:21:18.834Z,88.00
2017-12-22T22:23:51.491Z,87.90
2017-12-22T22:26:24.863Z,87.90
2017-12-22T22:28:57.342Z,88.00
2017-12-22T22:31:30.035Z,88.00
2017-12-22T22:34:03.293Z,88.00
2017-12-22T22:36:36.196Z,88.00
2017-12-22T22:39:08.917Z,88.00
2017-12-22T22:41:42.262Z,88.00
2017-12-22T22:44:14.841Z,88.00
2017-12-22T22:46:47.390Z,88.00
2017-12-22T22:49:19.919Z,88.00
2017-12-22T22:51:52.620Z,87.90
2017-12-22T22:54:25.343Z,88.00
2017-12-22T22:56:58.201Z,87.90
2017-12-22T22:59:31.488Z,88.10
2017-12-22T23:02:04.735Z,87.90
2017-12-22T23:04:38.079Z,88.10
2017-12-22T23:07:11.516Z,88.00
2017-12-22T23:09:44.024Z,87.90
2017-12-22T23:12:17.365Z,87.90
2017-12-22T23:14:50.477Z,87.90
2017-12-22T23:17:23.099Z,88.00
2017-12-22T23:19:55.801Z,88.00
2017-12-22T23:22:29.066Z,88.00
2017-12-22T23:25:02.278Z,87.80
2017-12-22T23:27:35.477Z,87.80
2017-12-22T23:30:09.078Z,87.80
2017-12-22T23:32:42.191Z,87.80
2017-12-22T23:35:14.769Z,87.80
2017-12-22T23:37:47.264Z,87.80
2017-12-22T23:40:20.015Z,87.80
2017-12-22T23:42:53.264Z,87.90
2017-12-22T23:45:26.184Z,87.90
2017-12-22T23:48:00.449Z,87.80
2017-12-22T23:50:33.336Z,87.70
2017-12-22T23:53:05.857Z,87.80
2017-12-22T23:55:38.405Z,87.90
2017-12-22T23:58:11.677Z,87.80
